KHLB/HLB METAR and TAF weather

Enter ICAO airport designator
Station Type Date Time Source
KHLB METAR 2018/12/15 20:15 UTC NOAA

KHLB 152015Z AUTO 02005KT 1SM BR BKN004 BKN028 OVC045 07/07 A2990 RMK A01


Station Type Date Time Source
KHLB Decoded METAR 2018/12/15 20:15 UTC NOAA

Station name not available
Dec 15, 2018 - 03:15 PM EST / 2018.12.15 2015 UTC
Wind: from the NNE (020 degrees) at 6 MPH (5 KT):0
Visibility: 1 mile(s):0
Sky conditions: overcast
Weather: mist
Temperature: 44 F (7 C)
Dew Point: 44 F (7 C)
Relative Humidity: 100%
Pressure (altimeter): 29.9 in. Hg (1012 hPa)
ob: KHLB 152015Z AUTO 02005KT 1SM BR BKN004 BKN028 OVC045 07/07 A2990 RMK A01
cycle: 20

Station Type Date Time Source
KHLB TAF UTC NOAA

Error!


Example: see airport list